createdAt,value
2018-05-19T00:00:01.260Z,4.63
2018-05-19T00:02:28.245Z,5.37
2018-05-19T00:04:55.267Z,6.37
2018-05-19T00:07:22.247Z,4.27
2018-05-19T00:09:49.231Z,5.83
2018-05-19T00:12:19.571Z,6.00
2018-05-19T00:14:46.558Z,6.43
2018-05-19T00:17:14.510Z,4.57
2018-05-19T00:19:41.539Z,8.30
2018-05-19T00:22:08.521Z,4.50
2018-05-19T00:24:36.275Z,8.17
2018-05-19T00:27:03.311Z,4.80
2018-05-19T00:29:30.291Z,5.03
2018-05-19T00:31:57.276Z,4.97
2018-05-19T00:34:24.302Z,4.83
2018-05-19T00:36:51.298Z,5.00
2018-05-19T00:39:18.298Z,6.93
2018-05-19T00:41:45.340Z,5.23
2018-05-19T00:44:15.356Z,5.17
2018-05-19T00:46:39.315Z,6.40
2018-05-19T00:49:06.332Z,7.03
2018-05-19T00:54:11.851Z,6.35
2018-05-19T00:56:38.877Z,4.93
2018-05-19T00:59:05.863Z,6.63
2018-05-19T01:01:32.889Z,7.43
2018-05-19T01:03:59.883Z,6.03
2018-05-19T01:06:26.876Z,5.13
2018-05-19T01:08:53.893Z,4.83
2018-05-19T01:11:20.881Z,6.53
2018-05-19T01:13:47.876Z,4.47
2018-05-19T01:16:14.951Z,4.87
2018-05-19T01:18:42.926Z,6.67
2018-05-19T01:21:11.786Z,7.63
2018-05-19T01:23:36.937Z,5.97
2018-05-19T01:26:03.946Z,6.70
2018-05-19T01:28:30.953Z,4.93
2018-05-19T01:30:58.117Z,6.50
2018-05-19T01:33:25.107Z,6.07
2018-05-19T01:35:52.142Z,7.87
2018-05-19T01:38:20.185Z,4.53
2018-05-19T01:40:47.164Z,6.90
2018-05-19T01:43:14.150Z,5.80
2018-05-19T01:45:41.999Z,4.53
2018-05-19T01:48:09.004Z,4.93
2018-05-19T01:50:35.989Z,5.33
2018-05-19T01:53:03.018Z,8.70
2018-05-19T01:55:31.783Z,4.40
2018-05-19T01:57:59.046Z,4.03
2018-05-19T02:00:26.184Z,5.27
2018-05-19T02:02:52.927Z,4.90
2018-05-19T02:05:19.906Z,4.30
2018-05-19T02:07:46.922Z,5.87
2018-05-19T02:12:52.429Z,5.82
2018-05-19T02:15:19.692Z,7.50
2018-05-19T02:17:46.403Z,6.20
2018-05-19T02:20:15.755Z,8.33
2018-05-19T02:22:42.736Z,5.70
2018-05-19T02:25:09.727Z,5.00
2018-05-19T02:27:37.015Z,6.30
2018-05-19T02:32:44.273Z,5.90
2018-05-19T02:35:14.027Z,4.73
2018-05-19T02:37:38.251Z,8.43
2018-05-19T02:40:05.293Z,6.43
2018-05-19T02:42:32.265Z,7.27
2018-05-19T02:44:59.256Z,9.00
2018-05-19T02:47:26.308Z,5.50
2018-05-19T02:49:53.376Z,6.30
2018-05-19T02:52:20.359Z,6.60
2018-05-19T02:54:47.403Z,5.10
2018-05-19T02:57:14.397Z,5.03
2018-05-19T02:59:41.385Z,5.53
2018-05-19T03:02:08.433Z,6.43
2018-05-19T03:04:37.287Z,5.73
2018-05-19T03:07:04.532Z,9.03
2018-05-19T03:09:31.576Z,7.93
2018-05-19T03:11:58.565Z,4.90
2018-05-19T03:14:25.573Z,5.10
2018-05-19T03:16:52.598Z,8.07
2018-05-19T03:19:19.584Z,5.77
2018-05-19T03:21:46.575Z,6.77
2018-05-19T03:24:13.613Z,6.63
2018-05-19T03:26:40.615Z,6.67
2018-05-19T03:29:07.603Z,5.13
2018-05-19T03:31:34.618Z,5.93
2018-05-19T03:34:01.604Z,6.57
2018-05-19T03:36:28.596Z,6.70
2018-05-19T03:38:55.638Z,4.93
2018-05-19T03:41:22.633Z,6.87
2018-05-19T03:43:49.635Z,5.77
2018-05-19T03:48:55.970Z,5.95
2018-05-19T03:51:23.016Z,5.90
2018-05-19T03:53:50.095Z,6.73
2018-05-19T03:56:17.006Z,7.00
2018-05-19T03:58:55.770Z,6.20
2018-05-19T04:01:34.629Z,6.23
2018-05-19T04:04:01.689Z,6.00
2018-05-19T04:06:28.763Z,5.50
2018-05-19T04:08:55.872Z,7.73
2018-05-19T04:11:22.901Z,9.33
2018-05-19T04:13:50.208Z,8.23
2018-05-19T04:16:17.202Z,5.63
2018-05-19T04:18:45.179Z,8.40
2018-05-19T04:21:12.173Z,8.37
2018-05-19T04:23:42.046Z,8.30
2018-05-19T04:26:09.071Z,5.30
2018-05-19T04:28:42.128Z,8.83
2018-05-19T04:31:09.160Z,6.63
2018-05-19T04:33:37.026Z,6.37
2018-05-19T04:36:04.030Z,6.83
2018-05-19T04:38:31.405Z,7.53
2018-05-19T04:40:59.353Z,9.47
2018-05-19T04:43:26.428Z,6.13
2018-05-19T04:45:53.446Z,9.27
2018-05-19T04:48:24.068Z,5.57
2018-05-19T04:50:52.277Z,6.93
2018-05-19T04:53:19.014Z,8.47
2018-05-19T04:55:45.998Z,4.67
2018-05-19T04:58:12.989Z,11.37
2018-05-19T05:00:40.022Z,5.70
2018-05-19T05:03:07.820Z,6.53
2018-05-19T05:08:19.853Z,7.95
2018-05-19T05:10:46.832Z,5.57
2018-05-19T05:13:13.813Z,5.53
2018-05-19T05:15:41.769Z,6.63
2018-05-19T05:18:08.762Z,7.77
2018-05-19T05:20:36.905Z,4.63
2018-05-19T05:23:03.949Z,6.17
2018-05-19T05:25:30.937Z,6.50
2018-05-19T05:27:57.917Z,4.93
2018-05-19T05:30:25.042Z,4.30
2018-05-19T05:32:52.008Z,5.83
2018-05-19T05:35:18.990Z,6.07
2018-05-19T05:37:46.092Z,6.10
2018-05-19T05:40:13.002Z,5.97
2018-05-19T05:42:40.810Z,6.17
2018-05-19T05:45:07.913Z,7.03
2018-05-19T05:47:34.990Z,6.83
2018-05-19T05:52:43.847Z,6.60
2018-05-19T05:55:10.916Z,8.37
2018-05-19T05:57:38.767Z,6.90
2018-05-19T06:00:05.794Z,8.00
2018-05-19T06:02:32.785Z,11.80
2018-05-19T06:04:59.781Z,10.00
2018-05-19T06:07:27.159Z,6.57
2018-05-19T06:09:54.172Z,8.70
2018-05-19T06:15:00.903Z,8.52
2018-05-19T06:17:27.891Z,5.20
2018-05-19T06:19:57.936Z,12.53
2018-05-19T06:22:24.938Z,6.47
2018-05-19T06:24:51.964Z,10.30
2018-05-19T06:27:18.945Z,6.20
2018-05-19T06:29:45.968Z,4.50
2018-05-19T06:32:12.958Z,7.17
2018-05-19T06:34:40.078Z,5.60
2018-05-19T06:37:07.048Z,5.73
2018-05-19T06:42:15.080Z,5.65
2018-05-19T06:44:42.156Z,5.80
2018-05-19T06:47:09.166Z,6.00
2018-05-19T06:49:36.191Z,5.23
2018-05-19T06:52:03.189Z,7.53
2018-05-19T06:54:30.199Z,7.17
2018-05-19T06:56:57.365Z,8.23
2018-05-19T06:59:26.239Z,5.63
2018-05-19T07:01:52.332Z,10.43
2018-05-19T07:04:19.313Z,5.67
2018-05-19T07:06:47.105Z,5.33
2018-05-19T07:09:14.084Z,7.47
2018-05-19T07:11:41.110Z,7.70
2018-05-19T07:14:08.101Z,4.83
2018-05-19T07:16:35.109Z,5.97
2018-05-19T07:19:02.251Z,8.93
2018-05-19T07:21:29.247Z,6.03
2018-05-19T07:23:56.233Z,7.10
2018-05-19T07:26:23.339Z,6.87
2018-05-19T07:28:52.174Z,6.47
2018-05-19T07:31:19.225Z,5.63
2018-05-19T07:33:48.966Z,8.73
2018-05-19T07:36:15.999Z,6.57
2018-05-19T07:38:42.937Z,5.57
2018-05-19T07:41:12.505Z,5.73
2018-05-19T07:43:42.590Z,5.23
2018-05-19T07:46:09.583Z,7.80
2018-05-19T07:48:36.607Z,7.50
2018-05-19T07:51:03.599Z,5.77
2018-05-19T07:53:31.601Z,7.10
2018-05-19T07:55:58.726Z,8.33
2018-05-19T08:01:04.249Z,5.05
2018-05-19T08:03:31.232Z,5.90
2018-05-19T08:06:02.895Z,5.13
2018-05-19T08:08:29.911Z,4.73
2018-05-19T08:10:56.929Z,6.67
2018-05-19T08:13:23.902Z,8.73
2018-05-19T08:15:50.934Z,6.17
2018-05-19T08:18:17.943Z,4.47
2018-05-19T08:20:44.935Z,6.90
2018-05-19T08:23:11.968Z,8.23
2018-05-19T08:25:38.965Z,5.33
2018-05-19T08:30:47.321Z,4.60
2018-05-19T08:33:14.305Z,5.17
2018-05-19T08:35:41.306Z,6.13
2018-05-19T08:38:08.321Z,6.23
2018-05-19T08:40:35.322Z,4.30
2018-05-19T08:43:03.033Z,6.90
2018-05-19T08:45:32.251Z,7.17
2018-05-19T08:47:59.964Z,4.77
2018-05-19T08:50:26.979Z,6.77
2018-05-19T08:52:54.727Z,6.83
2018-05-19T08:55:21.718Z,5.53
2018-05-19T08:57:49.081Z,7.87
2018-05-19T09:00:16.875Z,6.77
2018-05-19T09:02:44.817Z,4.90
2018-05-19T09:05:11.801Z,6.60
2018-05-19T09:07:38.835Z,5.33
2018-05-19T09:10:06.563Z,5.70
2018-05-19T09:12:33.546Z,5.47
2018-05-19T09:15:00.581Z,8.27
2018-05-19T09:17:27.601Z,5.33
2018-05-19T09:19:54.602Z,6.03
2018-05-19T09:22:23.590Z,7.73
2018-05-19T09:24:48.634Z,4.43
2018-05-19T09:27:15.718Z,6.87
2018-05-19T09:32:26.705Z,5.10
2018-05-19T09:34:56.977Z,7.93
2018-05-19T09:37:23.965Z,5.27
2018-05-19T09:39:50.963Z,6.97
2018-05-19T09:42:18.040Z,5.23
2018-05-19T09:44:49.161Z,4.73
2018-05-19T09:47:16.209Z,5.03
2018-05-19T09:49:46.176Z,5.70
2018-05-19T09:52:13.188Z,6.07
2018-05-19T09:54:40.925Z,6.03
2018-05-19T09:57:07.939Z,7.73
2018-05-19T09:59:34.928Z,8.47
2018-05-19T10:02:03.551Z,5.87
2018-05-19T10:07:09.603Z,7.30
2018-05-19T10:09:36.624Z,6.97
2018-05-19T10:12:03.615Z,3.90
2018-05-19T10:14:30.604Z,3.83
2018-05-19T10:16:57.626Z,4.17
2018-05-19T10:19:24.607Z,4.30
2018-05-19T10:21:51.607Z,3.63
2018-05-19T10:24:18.634Z,6.23
2018-05-19T10:26:46.478Z,7.37
2018-05-19T10:29:13.468Z,7.30
2018-05-19T10:31:40.476Z,4.97
2018-05-19T10:34:07.454Z,6.27
2018-05-19T10:36:36.183Z,4.57
2018-05-19T10:39:03.191Z,5.70
2018-05-19T10:41:30.182Z,5.07
2018-05-19T10:43:57.176Z,4.67
2018-05-19T10:46:24.190Z,3.60
2018-05-19T10:48:51.172Z,3.07
2018-05-19T10:51:18.159Z,3.37
2018-05-19T10:53:45.179Z,3.57
2018-05-19T10:56:12.163Z,4.27
2018-05-19T10:58:39.245Z,3.00
2018-05-19T11:01:06.277Z,3.57
2018-05-19T11:03:33.261Z,5.13
2018-05-19T11:06:00.253Z,4.10
2018-05-19T11:11:07.015Z,3.35
2018-05-19T11:13:34.071Z,3.17
2018-05-19T11:16:02.005Z,2.83
2018-05-19T11:18:29.070Z,3.37
2018-05-19T11:20:56.017Z,2.80
2018-05-19T11:23:23.019Z,3.53
2018-05-19T11:25:49.996Z,3.40
2018-05-19T11:28:17.009Z,4.77
2018-05-19T11:30:43.988Z,3.10
2018-05-19T11:33:13.730Z,2.80
2018-05-19T11:38:18.945Z,3.78
2018-05-19T11:40:46.926Z,2.90
2018-05-19T11:43:13.915Z,4.40
2018-05-19T11:45:40.909Z,3.33
2018-05-19T11:48:08.737Z,3.40
2018-05-19T11:50:35.759Z,3.57
2018-05-19T11:53:03.528Z,3.20
2018-05-19T11:55:30.552Z,3.07
2018-05-19T11:57:57.536Z,6.60
2018-05-19T12:00:24.556Z,4.23
2018-05-19T12:02:51.585Z,2.93
2018-05-19T12:05:18.672Z,4.90
2018-05-19T12:07:45.668Z,5.33
2018-05-19T12:10:14.879Z,4.20
2018-05-19T12:12:41.945Z,2.83
2018-05-19T12:15:09.909Z,2.60
2018-05-19T12:17:36.921Z,1.77
2018-05-19T12:20:03.925Z,1.90
2018-05-19T12:22:30.910Z,2.03
2018-05-19T12:24:58.804Z,1.93
2018-05-19T12:27:25.800Z,1.93
2018-05-19T12:29:52.798Z,2.27
2018-05-19T12:32:19.817Z,3.03
2018-05-19T12:34:52.699Z,2.57
2018-05-19T12:37:16.947Z,3.10
2018-05-19T12:39:44.233Z,1.40
2018-05-19T12:42:11.217Z,1.43
2018-05-19T12:44:38.212Z,1.40
2018-05-19T12:47:06.190Z,3.10
2018-05-19T12:49:33.176Z,2.00
2018-05-19T12:52:03.441Z,1.30
2018-05-19T12:54:30.463Z,2.17
2018-05-19T12:56:57.444Z,1.80
2018-05-19T12:59:24.528Z,1.63
2018-05-19T13:01:51.649Z,1.27
2018-05-19T13:06:59.069Z,3.10
2018-05-19T13:09:26.046Z,2.67
2018-05-19T13:11:53.034Z,2.20
2018-05-19T13:14:20.081Z,2.30
2018-05-19T13:16:47.156Z,4.60
2018-05-19T13:19:14.139Z,2.13
2018-05-19T13:21:41.180Z,2.10
2018-05-19T13:24:08.183Z,2.30
2018-05-19T13:26:35.169Z,3.80
2018-05-19T13:29:02.200Z,2.10
2018-05-19T13:31:29.215Z,1.77
2018-05-19T13:33:57.143Z,3.33
2018-05-19T13:36:24.227Z,2.87
2018-05-19T13:38:51.211Z,1.83
2018-05-19T13:41:18.216Z,2.23
2018-05-19T13:43:45.227Z,4.37
2018-05-19T13:46:12.216Z,3.87
2018-05-19T13:48:39.213Z,3.60
2018-05-19T13:51:06.231Z,3.33
2018-05-19T13:53:33.221Z,3.47
2018-05-19T13:56:00.214Z,2.27
2018-05-19T13:58:27.250Z,3.27
2018-05-19T14:00:54.244Z,4.47
2018-05-19T14:03:21.243Z,2.07
2018-05-19T14:05:48.272Z,2.10
2018-05-19T14:08:15.260Z,2.10
2018-05-19T14:13:22.747Z,3.28
2018-05-19T14:15:49.748Z,2.33
2018-05-19T14:18:16.730Z,1.93
2018-05-19T14:20:43.757Z,2.03
2018-05-19T14:23:10.741Z,2.17
2018-05-19T14:25:37.734Z,2.10
2018-05-19T14:28:04.754Z,1.67
2018-05-19T14:30:31.803Z,2.47
2018-05-19T14:33:00.168Z,1.80
2018-05-19T14:35:27.187Z,1.73
2018-05-19T14:37:54.927Z,2.73
2018-05-19T14:40:22.023Z,3.77
2018-05-19T14:42:48.970Z,2.57
2018-05-19T14:45:15.958Z,2.97
2018-05-19T14:47:43.898Z,4.20
2018-05-19T14:50:10.924Z,2.10
2018-05-19T14:52:37.989Z,3.53
2018-05-19T14:55:04.974Z,3.00
2018-05-19T14:57:32.008Z,3.13
2018-05-19T14:59:59.080Z,2.30
2018-05-19T15:02:26.068Z,1.70
2018-05-19T15:04:53.079Z,2.20
2018-05-19T15:07:20.065Z,2.40
2018-05-19T15:09:47.058Z,2.67
2018-05-19T15:12:14.080Z,2.50
2018-05-19T15:14:41.064Z,3.27
2018-05-19T15:17:08.994Z,2.33
2018-05-19T15:19:36.783Z,2.13
2018-05-19T15:22:05.425Z,2.67
2018-05-19T15:24:32.409Z,3.13
2018-05-19T15:27:00.383Z,2.40
2018-05-19T15:32:06.800Z,2.72
2018-05-19T15:34:33.788Z,7.03
2018-05-19T15:37:01.696Z,13.97
2018-05-19T15:39:28.734Z,21.43
2018-05-19T15:41:55.729Z,8.93
2018-05-19T15:44:25.687Z,6.63
2018-05-19T15:46:52.702Z,6.50
2018-05-19T15:49:20.627Z,9.23
2018-05-19T15:51:47.617Z,3.93
2018-05-19T15:54:14.647Z,3.13
2018-05-19T15:56:41.651Z,3.70
2018-05-19T15:59:08.650Z,1.60
2018-05-19T16:01:35.701Z,2.00
2018-05-19T16:04:02.703Z,2.60
2018-05-19T16:06:29.693Z,1.70
2018-05-19T16:08:56.712Z,1.77
2018-05-19T16:11:24.505Z,2.27
2018-05-19T16:13:51.506Z,3.10
2018-05-19T16:16:18.532Z,3.17
2018-05-19T16:18:45.534Z,2.43
2018-05-19T16:21:12.538Z,3.17
2018-05-19T16:23:40.458Z,3.07
2018-05-19T16:26:08.432Z,3.07
2018-05-19T16:28:35.423Z,4.37
2018-05-19T16:31:02.449Z,3.37
2018-05-19T16:33:29.520Z,4.23
2018-05-19T16:35:56.497Z,4.90
2018-05-19T16:38:23.535Z,6.13
2018-05-19T16:40:53.173Z,4.43
2018-05-19T16:43:20.162Z,2.90
2018-05-19T16:45:47.171Z,4.23
2018-05-19T16:50:52.672Z,4.32
2018-05-19T16:53:19.667Z,5.43
2018-05-19T16:55:46.659Z,5.67
2018-05-19T16:58:13.693Z,3.40
2018-05-19T17:00:41.044Z,3.00
2018-05-19T17:03:08.089Z,3.37
2018-05-19T17:05:35.940Z,5.23
2018-05-19T17:08:03.004Z,4.63
2018-05-19T17:10:29.918Z,3.10
2018-05-19T17:12:56.936Z,3.30
2018-05-19T17:15:23.916Z,3.77
2018-05-19T17:17:50.926Z,3.17
2018-05-19T17:20:17.938Z,6.03
2018-05-19T17:22:45.025Z,3.53
2018-05-19T17:25:12.026Z,6.20
2018-05-19T17:27:39.248Z,5.50
2018-05-19T17:30:06.321Z,4.37
2018-05-19T17:32:34.360Z,5.87
2018-05-19T17:35:03.308Z,8.47
2018-05-19T17:37:33.483Z,6.27
2018-05-19T17:40:00.559Z,6.47
2018-05-19T17:42:27.569Z,4.97
2018-05-19T17:44:54.895Z,4.63
2018-05-19T17:47:23.857Z,5.87
2018-05-19T17:49:49.784Z,5.33
2018-05-19T17:52:16.801Z,5.20
2018-05-19T17:54:43.763Z,4.17
2018-05-19T17:57:11.815Z,6.27
2018-05-19T17:59:38.777Z,6.53
2018-05-19T18:02:05.869Z,7.67
2018-05-19T18:04:32.916Z,8.60
2018-05-19T18:06:59.892Z,7.90
2018-05-19T18:12:06.847Z,5.95
2018-05-19T18:14:33.851Z,4.83
2018-05-19T18:17:02.117Z,5.37
2018-05-19T18:19:29.172Z,4.57
2018-05-19T18:24:25.307Z,5.80
2018-05-19T18:26:52.512Z,8.87
2018-05-19T18:29:19.569Z,5.57
2018-05-19T18:31:46.693Z,5.70
2018-05-19T18:34:13.640Z,7.10
2018-05-19T18:36:40.650Z,9.27
2018-05-19T18:39:09.481Z,8.87
2018-05-19T18:41:36.512Z,7.13
2018-05-19T18:44:03.807Z,6.67
2018-05-19T18:46:30.858Z,5.83
2018-05-19T18:48:58.655Z,3.97
2018-05-19T18:51:25.642Z,6.63
2018-05-19T18:53:53.451Z,4.80
2018-05-19T18:56:20.481Z,5.47
2018-05-19T18:58:49.360Z,6.23
2018-05-19T19:01:14.443Z,6.73
2018-05-19T19:03:41.472Z,7.77
2018-05-19T19:06:08.464Z,6.17
2018-05-19T19:08:35.450Z,5.53
2018-05-19T19:11:02.530Z,5.83
2018-05-19T19:13:30.568Z,8.37
2018-05-19T19:15:57.633Z,6.00
2018-05-19T19:18:25.417Z,5.70
2018-05-19T19:20:51.738Z,6.90
2018-05-19T19:23:18.750Z,10.90
2018-05-19T19:25:45.775Z,7.77
2018-05-19T19:30:53.357Z,8.10
2018-05-19T19:33:20.338Z,6.53
2018-05-19T19:35:47.391Z,6.23
2018-05-19T19:38:14.432Z,5.30
2018-05-19T19:40:41.432Z,7.03
2018-05-19T19:43:08.578Z,7.53
2018-05-19T19:45:37.655Z,5.93
2018-05-19T19:48:04.633Z,6.67
2018-05-19T19:53:02.962Z,8.53
2018-05-19T19:58:09.646Z,8.98
2018-05-19T20:00:36.630Z,9.27
2018-05-19T20:03:04.571Z,7.87
2018-05-19T20:05:31.606Z,12.43
2018-05-19T20:07:58.612Z,7.77
2018-05-19T20:10:25.603Z,8.33
2018-05-19T20:12:52.614Z,8.23
2018-05-19T20:15:19.597Z,7.10
2018-05-19T20:17:46.588Z,7.97
2018-05-19T20:20:13.639Z,9.53
2018-05-19T20:22:40.595Z,12.80
2018-05-19T20:25:07.584Z,10.33
2018-05-19T20:27:34.602Z,9.63
2018-05-19T20:30:02.110Z,10.87
2018-05-19T20:32:29.041Z,7.30
2018-05-19T20:34:56.061Z,8.93
2018-05-19T20:37:23.056Z,8.33
2018-05-19T20:39:51.023Z,9.37
2018-05-19T20:42:18.073Z,7.23
2018-05-19T20:44:45.069Z,11.60
2018-05-19T20:47:12.087Z,10.23
2018-05-19T20:49:39.116Z,11.27
2018-05-19T20:52:06.165Z,9.43
2018-05-19T20:54:34.704Z,9.63
2018-05-19T20:57:01.723Z,9.87
2018-05-19T20:59:30.555Z,9.17
2018-05-19T21:01:55.765Z,8.43
2018-05-19T21:09:32.467Z,10.35
2018-05-19T21:12:01.564Z,11.00
2018-05-19T21:14:28.556Z,9.87
2018-05-19T21:16:55.665Z,9.93
2018-05-19T21:19:22.691Z,9.33
2018-05-19T21:21:49.964Z,9.07
2018-05-19T21:24:16.973Z,12.93
2018-05-19T21:26:43.966Z,10.50
2018-05-19T21:29:10.945Z,10.33
2018-05-19T21:31:38.224Z,9.37
2018-05-19T21:34:05.217Z,11.00
2018-05-19T21:36:32.226Z,12.73
2018-05-19T21:38:59.265Z,9.20
2018-05-19T21:41:26.369Z,11.83
2018-05-19T21:43:53.260Z,8.10
2018-05-19T21:46:21.231Z,8.87
2018-05-19T21:48:48.215Z,8.43
2018-05-19T21:51:15.203Z,7.83
2018-05-19T21:53:43.047Z,7.07
2018-05-19T21:56:10.037Z,4.93
2018-05-19T21:58:37.906Z,5.37
2018-05-19T22:01:06.671Z,6.03
2018-05-19T22:03:33.665Z,4.43
2018-05-19T22:06:02.545Z,6.20
2018-05-19T22:08:28.641Z,5.10
2018-05-19T22:10:54.857Z,6.43
2018-05-19T22:13:21.853Z,4.73
2018-05-19T22:15:48.904Z,5.77
2018-05-19T22:18:17.842Z,5.73
2018-05-19T22:20:42.897Z,4.27
2018-05-19T22:23:09.912Z,4.50
2018-05-19T22:25:36.902Z,4.57
2018-05-19T22:28:03.953Z,4.57
2018-05-19T22:30:32.006Z,5.33
2018-05-19T22:35:40.443Z,5.68
2018-05-19T22:38:07.432Z,6.63
2018-05-19T22:40:34.405Z,6.00
2018-05-19T22:43:03.161Z,6.93
2018-05-19T22:45:30.240Z,8.50
2018-05-19T22:47:57.230Z,9.97
2018-05-19T22:50:24.293Z,8.37
2018-05-19T22:52:51.261Z,9.60
2018-05-19T22:55:18.257Z,12.77
2018-05-19T22:57:45.273Z,10.83
2018-05-19T23:02:52.405Z,12.30
2018-05-19T23:05:19.778Z,12.40
2018-05-19T23:07:46.782Z,12.60
2018-05-19T23:10:13.802Z,9.33
2018-05-19T23:12:40.803Z,9.37
2018-05-19T23:15:07.809Z,11.33
2018-05-19T23:17:38.793Z,11.90
2018-05-19T23:20:05.784Z,10.33
2018-05-19T23:25:19.788Z,13.90
2018-05-19T23:27:47.632Z,17.97
2018-05-19T23:30:14.628Z,10.83
2018-05-19T23:32:41.697Z,11.07
2018-05-19T23:35:08.717Z,10.43
2018-05-19T23:37:35.697Z,10.90
2018-05-19T23:40:02.680Z,14.20
2018-05-19T23:42:29.721Z,11.97
2018-05-19T23:44:56.710Z,10.70
2018-05-19T23:47:23.735Z,11.27
2018-05-19T23:49:50.784Z,11.97
2018-05-19T23:52:17.812Z,10.17
2018-05-19T23:54:44.786Z,8.70
2018-05-19T23:57:11.841Z,11.83
2018-05-19T23:59:38.833Z,13.77
